Time;durP1;ratioP1;P1;durP2;ratioP2;P2;SDS_P1;SDS_P2;PMS_P1;PMS_P2;Temp;Humidity;BMP_temperature;BMP_pressure;BME280_temperature;BME280_humidity;BME280_pressure;Samples;Min_cycle;Max_cycle;Signal;HPM_P1;HPM_P2
2023/05/09 00:02:34;;;;;;;6.65;3.78;;;;;;;;;;4987702;28;20056;-64
2023/05/09 00:06:14;;;;;;;6.50;3.40;;;;;;;;;;4986866;28;22124;-64
2023/05/09 00:09:54;;;;;;;15.30;3.60;;;;;;;;;;4990283;28;20058;-61
2023/05/09 00:13:34;;;;;;;6.10;3.30;;;;;;;;;;4990089;28;20054;-63
2023/05/09 00:17:17;;;;;;;4.93;3.15;;;;;;;;;;4989740;28;20061;-62
2023/05/09 00:20:56;;;;;;;5.75;3.05;;;;;;;;;;4997343;28;20141;-64
2023/05/09 00:24:37;;;;;;;17.25;3.10;;;;;;;;;;4988867;28;20696;-67
2023/05/09 00:28:17;;;;;;;5.97;3.65;;;;;;;;;;4992194;28;20057;-62
2023/05/09 00:31:58;;;;;;;5.50;2.95;;;;;;;;;;4988064;28;20096;-63
2023/05/09 00:35:38;;;;;;;5.18;3.00;;;;;;;;;;4987887;28;20259;-64
2023/05/09 00:39:18;;;;;;;6.35;2.78;;;;;;;;;;4991045;28;20700;-62
2023/05/09 00:42:59;;;;;;;6.13;2.78;;;;;;;;;;4989393;28;20053;-63
2023/05/09 00:46:39;;;;;;;5.95;2.95;;;;;;;;;;4987742;28;20557;-63
2023/05/09 00:50:19;;;;;;;5.55;2.70;;;;;;;;;;4988883;28;20061;-62
2023/05/09 00:53:59;;;;;;;6.70;3.13;;;;;;;;;;4990785;28;20486;-62
2023/05/09 00:57:40;;;;;;;7.13;3.03;;;;;;;;;;4990897;28;20050;-63
2023/05/09 01:01:21;;;;;;;6.43;2.83;;;;;;;;;;4990476;28;20640;-62
2023/05/09 01:05:01;;;;;;;6.93;3.00;;;;;;;;;;4985375;28;20079;-62
2023/05/09 01:08:50;;;;;;;5.35;3.05;;;;;;;;;;4988204;28;20069;-62
2023/05/09 01:12:45;;;;;;;5.03;3.20;;;;;;;;;;4985229;28;22112;-62
2023/05/09 01:16:07;;;;;;;8.07;3.40;;;;;;;;;;4985484;28;20353;-62
2023/05/09 01:19:25;;;;;;;7.88;3.25;;;;;;;;;;4993366;28;20448;-63
2023/05/09 01:23:05;;;;;;;5.43;3.58;;;;;;;;;;4986447;28;20049;-60
2023/05/09 01:26:06;;;;;;;8.38;3.33;;;;;;;;;;4985776;28;20259;-62
2023/05/09 01:30:03;;;;;;;9.50;3.17;;;;;;;;;;4987891;28;20268;-64
2023/05/09 01:33:43;;;;;;;8.45;3.33;;;;;;;;;;4990425;28;20090;-63
2023/05/09 01:37:24;;;;;;;5.90;2.95;;;;;;;;;;4985920;28;20056;-62
2023/05/09 01:41:04;;;;;;;9.73;3.08;;;;;;;;;;4985198;28;20120;-63
2023/05/09 01:44:45;;;;;;;12.02;2.90;;;;;;;;;;4986603;28;20042;-62
2023/05/09 01:48:25;;;;;;;4.95;2.65;;;;;;;;;;4985979;28;20049;-62
2023/05/09 01:52:05;;;;;;;7.60;2.90;;;;;;;;;;4984964;28;20172;-64
2023/05/09 01:55:45;;;;;;;5.47;2.58;;;;;;;;;;4982555;28;20045;-60
2023/05/09 01:59:26;;;;;;;4.80;2.65;;;;;;;;;;4985980;28;20070;-61
2023/05/09 02:03:06;;;;;;;5.82;2.78;;;;;;;;;;4982982;28;20042;-61
2023/05/09 02:06:49;;;;;;;7.63;2.90;;;;;;;;;;4987681;28;20500;-63
2023/05/09 02:10:27;;;;;;;5.85;2.90;;;;;;;;;;4987902;28;20049;-62
2023/05/09 02:14:07;;;;;;;7.00;3.17;;;;;;;;;;4988019;28;20050;-61
2023/05/09 02:17:48;;;;;;;5.75;3.38;;;;;;;;;;4988478;28;20242;-63
2023/05/09 02:21:28;;;;;;;7.32;3.58;;;;;;;;;;4993804;28;20049;-62
2023/05/09 02:25:09;;;;;;;7.47;3.70;;;;;;;;;;4989207;28;20053;-63
2023/05/09 02:28:49;;;;;;;5.82;3.50;;;;;;;;;;4987990;28;20132;-62
2023/05/09 02:32:35;;;;;;;6.70;4.07;;;;;;;;;;4984502;28;20045;-60
2023/05/09 02:36:15;;;;;;;7.88;4.05;;;;;;;;;;4985918;28;20482;-62
2023/05/09 02:39:55;;;;;;;10.45;3.40;;;;;;;;;;4988533;28;20053;-62
2023/05/09 02:43:37;;;;;;;7.05;3.80;;;;;;;;;;4987581;28;20057;-64
2023/05/09 02:47:17;;;;;;;5.05;3.63;;;;;;;;;;4987000;28;20132;-62
2023/05/09 02:50:57;;;;;;;7.15;3.72;;;;;;;;;;4986794;28;20061;-60
2023/05/09 02:54:38;;;;;;;8.18;3.80;;;;;;;;;;4987155;28;20041;-63
2023/05/09 02:58:18;;;;;;;8.52;4.05;;;;;;;;;;4987749;28;20576;-64
2023/05/09 03:01:58;;;;;;;12.95;4.60;;;;;;;;;;4987171;28;20153;-62
2023/05/09 03:05:39;;;;;;;8.00;3.67;;;;;;;;;;4986418;28;20054;-62
2023/05/09 03:09:19;;;;;;;9.77;3.47;;;;;;;;;;4984055;28;20108;-62
2023/05/09 03:13:00;;;;;;;9.05;4.20;;;;;;;;;;4987976;28;20065;-63
2023/05/09 03:16:40;;;;;;;11.32;4.10;;;;;;;;;;4988183;28;20133;-63
2023/05/09 03:20:20;;;;;;;10.98;3.60;;;;;;;;;;4987399;28;20578;-63
2023/05/09 03:24:01;;;;;;;6.75;4.10;;;;;;;;;;4988859;28;20056;-63
2023/05/09 03:27:41;;;;;;;5.65;3.53;;;;;;;;;;4987938;28;20477;-62
2023/05/09 03:31:21;;;;;;;7.22;3.92;;;;;;;;;;4990690;28;20057;-62
2023/05/09 03:35:02;;;;;;;9.10;3.90;;;;;;;;;;4987993;28;20497;-61
2023/05/09 03:38:42;;;;;;;5.20;3.55;;;;;;;;;;4987159;28;20057;-63
2023/05/09 03:42:22;;;;;;;8.45;3.70;;;;;;;;;;4984310;28;20504;-61
2023/05/09 03:46:02;;;;;;;8.57;3.97;;;;;;;;;;4993693;28;20077;-62
2023/05/09 03:49:43;;;;;;;9.75;3.47;;;;;;;;;;4991575;28;20116;-60
2023/05/09 03:53:23;;;;;;;5.88;2.85;;;;;;;;;;4995243;28;20054;-63
2023/05/09 03:57:03;;;;;;;6.05;3.47;;;;;;;;;;4991222;28;20108;-61
2023/05/09 04:00:44;;;;;;;4.60;2.72;;;;;;;;;;4989911;28;20053;-63
2023/05/09 04:04:24;;;;;;;10.27;3.10;;;;;;;;;;4991061;28;20070;-63
2023/05/09 04:08:05;;;;;;;7.63;2.65;;;;;;;;;;4990909;28;20065;-62
2023/05/09 04:11:45;;;;;;;5.07;2.70;;;;;;;;;;4993491;28;20041;-61
2023/05/09 04:15:26;;;;;;;7.28;2.85;;;;;;;;;;4990867;28;20060;-61
2023/05/09 04:19:06;;;;;;;8.18;3.28;;;;;;;;;;4991727;28;20054;-63
2023/05/09 04:22:47;;;;;;;7.90;3.88;;;;;;;;;;4991196;28;20050;-62
2023/05/09 04:26:30;;;;;;;7.43;3.45;;;;;;;;;;4990803;28;20575;-63
2023/05/09 04:30:09;;;;;;;5.60;3.58;;;;;;;;;;4988658;28;20057;-63
2023/05/09 04:33:48;;;;;;;6.35;3.25;;;;;;;;;;4984089;28;21919;-64
2023/05/09 04:37:30;;;;;;;5.68;3.50;;;;;;;;;;4992499;28;20045;-63
2023/05/09 04:41:09;;;;;;;7.57;4.15;;;;;;;;;;4990567;28;20386;-65
2023/05/09 04:44:50;;;;;;;7.97;3.55;;;;;;;;;;4990051;28;20058;-62
2023/05/09 04:48:30;;;;;;;6.45;3.47;;;;;;;;;;4986824;28;20490;-64
2023/05/09 04:52:10;;;;;;;5.97;3.55;;;;;;;;;;4992653;28;20100;-64
2023/05/09 04:55:50;;;;;;;5.88;3.28;;;;;;;;;;4989971;28;20490;-62
2023/05/09 04:59:31;;;;;;;8.05;3.67;;;;;;;;;;4987689;28;20050;-65
2023/05/09 05:03:11;;;;;;;5.30;3.05;;;;;;;;;;4984920;28;20141;-66
2023/05/09 05:06:52;;;;;;;8.13;3.47;;;;;;;;;;4989517;28;20072;-63
2023/05/09 05:10:32;;;;;;;8.13;3.17;;;;;;;;;;4987889;28;20068;-62
2023/05/09 05:14:12;;;;;;;6.95;2.92;;;;;;;;;;4989840;28;20093;-62
2023/05/09 05:17:53;;;;;;;7.75;3.33;;;;;;;;;;4987904;28;20155;-62
2023/05/09 05:21:34;;;;;;;9.40;3.67;;;;;;;;;;4995108;28;20042;-65
2023/05/09 05:25:16;;;;;;;6.93;3.35;;;;;;;;;;4986601;28;20418;-65
2023/05/09 05:28:56;;;;;;;8.43;3.00;;;;;;;;;;4989015;28;20957;-63
2023/05/09 05:32:36;;;;;;;9.00;2.85;;;;;;;;;;4988213;28;20060;-63
2023/05/09 05:36:16;;;;;;;6.47;3.08;;;;;;;;;;4986781;28;20081;-63
2023/05/09 05:39:57;;;;;;;6.88;3.33;;;;;;;;;;4988068;28;20052;-62
2023/05/09 05:43:37;;;;;;;6.93;2.13;;;;;;;;;;4988540;28;20136;-62
2023/05/09 05:47:17;;;;;;;5.43;2.42;;;;;;;;;;4981492;28;20046;-64
2023/05/09 05:50:58;;;;;;;7.43;2.28;;;;;;;;;;4990400;28;20045;-64
2023/05/09 05:54:38;;;;;;;5.22;2.30;;;;;;;;;;4989618;28;20060;-63
2023/05/09 05:58:05;;;;;;;8.73;2.50;;;;;;;;;;4985167;28;20042;-65
2023/05/09 06:01:45;;;;;;;10.90;2.42;;;;;;;;;;4988710;28;20505;-64
2023/05/09 06:05:26;;;;;;;8.52;2.70;;;;;;;;;;4987170;28;20054;-64
2023/05/09 06:09:22;;;;;;;8.27;3.00;;;;;;;;;;4986994;28;20053;-63
2023/05/09 06:13:03;;;;;;;9.50;3.40;;;;;;;;;;4986499;28;20050;-64
2023/05/09 06:16:43;;;;;;;9.23;3.30;;;;;;;;;;4988348;28;20061;-63
2023/05/09 06:20:24;;;;;;;14.40;3.20;;;;;;;;;;4989124;28;20688;-63
2023/05/09 06:24:04;;;;;;;12.90;3.33;;;;;;;;;;4998221;28;20072;-64
2023/05/09 06:27:44;;;;;;;18.88;4.05;;;;;;;;;;4990731;28;20136;-63
2023/05/09 06:31:25;;;;;;;17.45;3.55;;;;;;;;;;4985986;28;20916;-68
2023/05/09 06:35:05;;;;;;;16.45;3.53;;;;;;;;;;4985560;28;20046;-68
2023/05/09 06:38:45;;;;;;;17.50;4.05;;;;;;;;;;4988586;28;20449;-68
2023/05/09 06:42:27;;;;;;;19.88;4.28;;;;;;;;;;4987824;28;20657;-65
2023/05/09 06:46:06;;;;;;;25.05;4.80;;;;;;;;;;4985457;28;20049;-66
2023/05/09 06:49:46;;;;;;;25.67;4.72;;;;;;;;;;4985627;28;20049;-63
2023/05/09 06:53:27;;;;;;;14.95;4.68;;;;;;;;;;4986983;28;20489;-62
2023/05/09 06:57:07;;;;;;;25.70;4.80;;;;;;;;;;4987166;28;20559;-63
2023/05/09 07:00:48;;;;;;;17.45;4.97;;;;;;;;;;4986004;28;20276;-64
2023/05/09 07:04:30;;;;;;;18.25;5.20;;;;;;;;;;4987969;28;20061;-62
2023/05/09 07:08:11;;;;;;;14.85;4.65;;;;;;;;;;4982807;28;20104;-63
2023/05/09 07:11:51;;;;;;;20.48;5.38;;;;;;;;;;4983892;28;20042;-62
2023/05/09 07:15:32;;;;;;;16.80;4.30;;;;;;;;;;4982255;28;20135;-63
2023/05/09 07:19:12;;;;;;;18.10;4.35;;;;;;;;;;4987183;28;20049;-62
2023/05/09 07:22:52;;;;;;;13.10;4.57;;;;;;;;;;4984876;28;20829;-63
2023/05/09 07:26:36;;;;;;;17.13;3.97;;;;;;;;;;4982189;28;20054;-63
2023/05/09 07:30:16;;;;;;;14.15;4.20;;;;;;;;;;4987703;28;20137;-62
2023/05/09 07:33:58;;;;;;;13.63;4.88;;;;;;;;;;4989156;28;20049;-62
2023/05/09 07:37:39;;;;;;;13.63;4.18;;;;;;;;;;4990129;28;20057;-61
2023/05/09 07:41:19;;;;;;;9.68;3.35;;;;;;;;;;4986692;28;20875;-62
2023/05/09 07:44:59;;;;;;;13.98;3.72;;;;;;;;;;4986420;28;20054;-62
2023/05/09 07:47:59;;;;;;;27.67;5.38;;;;;;;;;;4987444;28;20046;-63
2023/05/09 07:50:25;;;;;;;16.85;4.90;;;;;;;;;;4985250;28;20065;-61
2023/05/09 07:52:51;;;;;;;19.27;5.40;;;;;;;;;;4989922;28;20462;-63
2023/05/09 07:55:18;;;;;;;19.25;5.18;;;;;;;;;;4989390;28;20057;-62
2023/05/09 07:57:44;;;;;;;20.63;4.63;;;;;;;;;;4986537;28;20078;-64
2023/05/09 08:00:10;;;;;;;18.15;4.32;;;;;;;;;;4988444;28;20533;-61
2023/05/09 08:02:36;;;;;;;20.00;4.68;;;;;;;;;;4991034;28;20058;-63
2023/05/09 08:05:03;;;;;;;19.35;3.60;;;;;;;;;;4988791;28;20037;-63
2023/05/09 08:07:29;;;;;;;10.95;3.75;;;;;;;;;;4971522;28;20203;-62
2023/05/09 08:09:56;;;;;;;10.82;3.60;;;;;;;;;;4985809;28;20503;-60
2023/05/09 08:13:02;;;;;;;8.15;3.58;;;;;;;;;;4989103;28;20049;-65
2023/05/09 08:16:42;;;;;;;23.88;4.10;;;;;;;;;;4987314;28;20141;-63
2023/05/09 08:20:23;;;;;;;10.40;3.90;;;;;;;;;;4985587;28;20046;-62
2023/05/09 08:24:04;;;;;;;10.35;2.63;;;;;;;;;;4988551;28;20046;-61
2023/05/09 08:27:43;;;;;;;6.88;2.22;;;;;;;;;;4983469;28;20347;-62
2023/05/09 08:31:25;;;;;;;12.65;2.67;;;;;;;;;;4984705;28;20564;-61
2023/05/09 08:35:05;;;;;;;8.18;3.28;;;;;;;;;;4986529;28;20061;-60
2023/05/09 08:38:45;;;;;;;16.33;3.95;;;;;;;;;;4992393;28;20049;-64
2023/05/09 08:42:26;;;;;;;9.32;3.13;;;;;;;;;;4989529;28;20080;-63
2023/05/09 08:46:07;;;;;;;8.98;3.05;;;;;;;;;;4990228;28;20042;-61
2023/05/09 08:49:48;;;;;;;17.17;3.15;;;;;;;;;;4989162;28;20057;-61
2023/05/09 08:53:27;;;;;;;18.30;3.47;;;;;;;;;;4990601;28;20056;-60
2023/05/09 08:57:07;;;;;;;9.52;3.15;;;;;;;;;;4989987;28;20176;-64
2023/05/09 09:00:49;;;;;;;16.48;3.03;;;;;;;;;;4986773;28;20045;-64
2023/05/09 09:04:28;;;;;;;20.90;3.70;;;;;;;;;;4985576;28;20058;-61
2023/05/09 09:08:09;;;;;;;14.80;3.40;;;;;;;;;;4988679;28;20068;-60
2023/05/09 09:11:50;;;;;;;11.98;3.05;;;;;;;;;;4986612;28;20054;-60
2023/05/09 09:15:31;;;;;;;20.65;3.67;;;;;;;;;;4988740;28;20046;-61
2023/05/09 09:19:11;;;;;;;17.00;3.70;;;;;;;;;;4987396;28;20050;-61
2023/05/09 09:22:52;;;;;;;13.73;3.50;;;;;;;;;;4989599;28;20052;-60
2023/05/09 09:26:39;;;;;;;17.17;3.20;;;;;;;;;;4985862;28;20054;-68
2023/05/09 09:30:26;;;;;;;21.15;3.88;;;;;;;;;;4985342;28;20076;-61
2023/05/09 09:33:28;;;;;;;16.23;3.42;;;;;;;;;;4986895;28;20053;-60
2023/05/09 09:35:58;;;;;;;16.70;3.42;;;;;;;;;;4988195;28;20133;-63
2023/05/09 09:38:24;;;;;;;18.30;4.20;;;;;;;;;;4991875;28;20045;-62
2023/05/09 09:40:54;;;;;;;10.98;3.72;;;;;;;;;;4986731;28;20421;-64
2023/05/09 09:43:29;;;;;;;21.45;4.03;;;;;;;;;;4988954;28;20053;-64
2023/05/09 09:45:56;;;;;;;14.85;3.45;;;;;;;;;;4986961;28;20054;-64
2023/05/09 09:48:26;;;;;;;13.93;3.45;;;;;;;;;;4987723;28;20053;-62
2023/05/09 09:50:58;;;;;;;10.77;3.35;;;;;;;;;;4985181;28;20064;-65
2023/05/09 09:53:30;;;;;;;13.50;4.13;;;;;;;;;;4988903;28;20062;-66
2023/05/09 09:55:57;;;;;;;14.55;4.93;;;;;;;;;;4988101;28;21616;-62
2023/05/09 09:58:24;;;;;;;11.13;4.40;;;;;;;;;;4988379;28;20056;-65
2023/05/09 10:01:07;;;;;;;10.60;5.30;;;;;;;;;;4988089;28;21847;-64
2023/05/09 10:03:40;;;;;;;14.02;5.35;;;;;;;;;;4991679;28;20053;-62
2023/05/09 10:06:11;;;;;;;12.52;6.00;;;;;;;;;;4989067;28;20509;-62
2023/05/09 10:08:37;;;;;;;12.88;6.63;;;;;;;;;;4988677;28;20173;-61
2023/05/09 10:11:05;;;;;;;15.40;6.70;;;;;;;;;;4980312;28;20050;-61
2023/05/09 10:13:34;;;;;;;17.35;6.75;;;;;;;;;;4993596;28;20077;-62
2023/05/09 10:16:03;;;;;;;13.77;6.32;;;;;;;;;;4989350;28;20123;-63
2023/05/09 10:18:30;;;;;;;11.10;5.93;;;;;;;;;;4990781;28;20057;-65
2023/05/09 10:21:02;;;;;;;12.63;5.95;;;;;;;;;;4995968;28;20795;-64
2023/05/09 10:23:36;;;;;;;13.50;6.38;;;;;;;;;;4989562;28;20061;-63
2023/05/09 10:26:22;;;;;;;13.57;7.03;;;;;;;;;;4989027;28;20053;-62
2023/05/09 10:28:53;;;;;;;19.55;7.65;;;;;;;;;;4988701;28;20050;-64
2023/05/09 10:31:26;;;;;;;16.45;7.90;;;;;;;;;;4987537;28;20056;-61
2023/05/09 10:33:53;;;;;;;19.33;7.72;;;;;;;;;;4989011;28;20145;-62
2023/05/09 10:36:25;;;;;;;15.57;6.43;;;;;;;;;;4990245;28;20061;-61
2023/05/09 10:38:55;;;;;;;19.83;6.55;;;;;;;;;;4987958;28;20191;-62
2023/05/09 10:41:22;;;;;;;11.77;5.35;;;;;;;;;;4987307;28;20395;-63
2023/05/09 10:43:48;;;;;;;9.88;4.80;;;;;;;;;;4987011;28;20058;-61
2023/05/09 10:46:16;;;;;;;13.85;4.25;;;;;;;;;;4987463;28;20050;-62
2023/05/09 10:48:43;;;;;;;9.07;4.22;;;;;;;;;;4987153;28;20196;-63
2023/05/09 10:51:10;;;;;;;6.57;3.58;;;;;;;;;;4986657;28;20054;-61
2023/05/09 10:53:48;;;;;;;9.57;3.90;;;;;;;;;;4987515;28;20056;-60
2023/05/09 10:56:27;;;;;;;6.40;3.58;;;;;;;;;;4968880;28;21884;-60
2023/05/09 10:58:53;;;;;;;5.00;3.17;;;;;;;;;;4986710;28;20767;-63
2023/05/09 11:01:37;;;;;;;12.90;3.70;;;;;;;;;;4967430;28;20104;-62
2023/05/09 11:04:11;;;;;;;12.95;3.50;;;;;;;;;;4987656;28;20077;-62
2023/05/09 11:06:48;;;;;;;;;;;;;;;;;;4989183;28;20505;-63
2023/05/09 11:09:40;;;;;;;6.90;3.58;;;;;;;;;;4987930;28;19929;-63
2023/05/09 11:12:07;;;;;;;8.02;3.40;;;;;;;;;;4985678;28;20062;-61
2023/05/09 11:14:46;;;;;;;10.82;3.47;;;;;;;;;;4988808;28;20667;-62
2023/05/09 11:17:42;;;;;;;6.78;3.40;;;;;;;;;;4984660;28;20123;-60
2023/05/09 11:20:09;;;;;;;9.20;4.03;;;;;;;;;;4910654;29;20043;-62
2023/05/09 11:22:43;;;;;;;7.88;3.42;;;;;;;;;;4912891;29;20563;-61
2023/05/09 11:25:12;;;;;;;6.68;3.90;;;;;;;;;;4904218;28;20079;-62
2023/05/09 11:27:51;;;;;;;8.07;3.20;;;;;;;;;;4905647;29;20296;-61
2023/05/09 11:30:20;;;;;;;8.43;3.00;;;;;;;;;;4904620;29;20062;-63
2023/05/09 11:32:50;;;;;;;6.05;3.20;;;;;;;;;;4904420;29;20185;-61
2023/05/09 11:35:18;;;;;;;6.13;2.90;;;;;;;;;;4905452;29;20119;-62
2023/05/09 11:37:51;;;;;;;5.90;2.60;;;;;;;;;;4905974;29;20623;-62
2023/05/09 11:40:18;;;;;;;4.25;2.75;;;;;;;;;;4904271;29;20052;-63
2023/05/09 11:42:54;;;;;;;6.82;2.80;;;;;;;;;;4904704;29;20067;-61
2023/05/09 11:45:22;;;;;;;9.00;2.83;;;;;;;;;;4906919;29;20163;-61
2023/05/09 11:47:49;;;;;;;6.22;2.83;;;;;;;;;;4904464;29;21680;-61
2023/05/09 11:50:18;;;;;;;5.45;2.33;;;;;;;;;;4905282;29;20750;-61
2023/05/09 11:52:45;;;;;;;5.13;2.60;;;;;;;;;;4905573;29;20056;-63
2023/05/09 11:55:16;;;;;;;5.60;2.80;;;;;;;;;;4902629;29;20060;-61
2023/05/09 11:57:45;;;;;;;6.82;2.47;;;;;;;;;;4983341;28;20058;-62
2023/05/09 12:00:11;;;;;;;4.85;2.63;;;;;;;;;;4986545;28;20733;-64
2023/05/09 12:02:38;;;;;;;6.72;2.75;;;;;;;;;;4985086;28;20058;-63
2023/05/09 12:05:10;;;;;;;13.15;3.08;;;;;;;;;;4988791;28;20054;-64
2023/05/09 12:07:38;;;;;;;9.10;2.80;;;;;;;;;;4989932;28;20461;-63
2023/05/09 12:10:07;;;;;;;12.13;3.15;;;;;;;;;;4989471;28;20049;-63
2023/05/09 12:12:44;;;;;;;4.70;2.50;;;;;;;;;;4970043;28;20064;-63
2023/05/09 12:15:12;;;;;;;8.75;3.20;;;;;;;;;;4990574;28;20056;-64
2023/05/09 12:17:39;;;;;;;12.35;3.58;;;;;;;;;;4989183;28;20049;-64
2023/05/09 12:20:06;;;;;;;7.35;3.55;;;;;;;;;;4993889;28;20240;-65
2023/05/09 12:22:34;;;;;;;6.07;2.92;;;;;;;;;;4988892;28;20065;-64
2023/05/09 12:25:04;;;;;;;10.60;2.50;;;;;;;;;;4988187;28;20042;-60
2023/05/09 12:27:31;;;;;;;6.32;2.22;;;;;;;;;;4990045;28;20061;-65
2023/05/09 12:30:13;;;;;;;6.22;2.28;;;;;;;;;;4990035;28;20501;-63
2023/05/09 12:32:40;;;;;;;5.22;2.10;;;;;;;;;;4989777;28;20054;-64
2023/05/09 12:35:09;;;;;;;5.45;1.90;;;;;;;;;;4988416;28;20328;-64
2023/05/09 12:37:35;;;;;;;11.57;2.75;;;;;;;;;;4989191;28;20038;-64
2023/05/09 12:40:14;;;;;;;16.13;2.33;;;;;;;;;;4985596;28;20064;-60
2023/05/09 12:42:44;;;;;;;10.15;2.63;;;;;;;;;;4988351;28;20049;-64
2023/05/09 12:45:10;;;;;;;6.55;2.15;;;;;;;;;;4989065;28;20143;-62
2023/05/09 12:47:40;;;;;;;10.57;2.15;;;;;;;;;;4989382;28;20046;-68
2023/05/09 12:50:08;;;;;;;6.97;1.85;;;;;;;;;;4989525;28;20108;-64
2023/05/09 12:52:39;;;;;;;5.22;1.88;;;;;;;;;;4988320;28;20053;-61
2023/05/09 12:55:12;;;;;;;5.18;1.80;;;;;;;;;;4986538;28;20077;-62
2023/05/09 12:57:39;;;;;;;;;;;;;;;;;;4989494;28;20084;-62
2023/05/09 13:00:09;;;;;;;6.57;2.00;;;;;;;;;;4989290;28;20032;-64
2023/05/09 13:02:42;;;;;;;5.95;1.88;;;;;;;;;;4991256;28;20468;-61
2023/05/09 13:05:14;;;;;;;9.25;2.03;;;;;;;;;;4990132;28;20399;-64
2023/05/09 13:07:42;;;;;;;5.22;2.20;;;;;;;;;;4991323;28;20046;-62
2023/05/09 13:10:11;;;;;;;6.20;2.33;;;;;;;;;;4991832;28;20879;-67
2023/05/09 13:12:38;;;;;;;7.53;2.20;;;;;;;;;;4992203;28;20065;-64
2023/05/09 13:15:06;;;;;;;5.90;2.50;;;;;;;;;;4991536;28;20441;-63
2023/05/09 13:17:33;;;;;;;14.50;2.40;;;;;;;;;;4993509;28;20045;-64
2023/05/09 13:19:59;;;;;;;7.82;2.40;;;;;;;;;;4993600;28;20116;-63
2023/05/09 13:22:26;;;;;;;7.82;2.40;;;;;;;;;;5004622;28;20067;-62
2023/05/09 13:24:51;;;;;;;13.35;2.72;;;;;;;;;;4988280;28;20737;-64
2023/05/09 13:27:17;;;;;;;8.07;2.42;;;;;;;;;;4993493;28;20116;-65
2023/05/09 13:29:43;;;;;;;7.22;2.35;;;;;;;;;;4989649;28;20045;-63
2023/05/09 13:32:09;;;;;;;8.77;2.30;;;;;;;;;;4992066;28;20141;-65
2023/05/09 13:34:36;;;;;;;8.13;2.70;;;;;;;;;;4991908;28;20054;-64
2023/05/09 13:37:02;;;;;;;10.35;2.65;;;;;;;;;;4991793;28;21765;-62
2023/05/09 13:39:29;;;;;;;5.72;2.28;;;;;;;;;;4991189;28;20139;-62
2023/05/09 13:41:56;;;;;;;7.30;2.33;;;;;;;;;;4993556;28;20112;-64
2023/05/09 13:44:22;;;;;;;10.50;3.00;;;;;;;;;;4987903;28;20417;-62
2023/05/09 13:46:49;;;;;;;9.45;2.35;;;;;;;;;;4994687;28;20049;-62
2023/05/09 13:49:15;;;;;;;13.15;2.38;;;;;;;;;;4989538;28;20061;-62
2023/05/09 13:51:41;;;;;;;7.85;2.42;;;;;;;;;;4991952;28;20107;-61
2023/05/09 13:54:11;;;;;;;12.23;2.67;;;;;;;;;;4990180;28;20054;-62
2023/05/09 13:56:41;;;;;;;5.70;2.28;;;;;;;;;;4992901;28;20045;-63
2023/05/09 13:59:08;;;;;;;10.07;2.30;;;;;;;;;;4988770;28;20056;-63
2023/05/09 14:01:34;;;;;;;6.05;2.60;;;;;;;;;;4989705;28;20049;-64
2023/05/09 14:04:00;;;;;;;9.98;2.55;;;;;;;;;;4998451;28;20536;-62
2023/05/09 14:06:27;;;;;;;9.50;2.72;;;;;;;;;;4991379;28;20520;-65
2023/05/09 14:08:55;;;;;;;10.85;2.55;;;;;;;;;;4989315;28;20435;-63
2023/05/09 14:11:22;;;;;;;8.73;2.78;;;;;;;;;;4990000;28;20114;-63
2023/05/09 14:13:48;;;;;;;9.23;2.90;;;;;;;;;;4988521;28;20121;-64
2023/05/09 14:16:14;;;;;;;12.63;3.25;;;;;;;;;;4989358;28;20046;-63
2023/05/09 14:18:40;;;;;;;10.70;2.50;;;;;;;;;;4992720;28;20079;-63
2023/05/09 14:21:06;;;;;;;8.18;2.60;;;;;;;;;;4988638;28;20054;-64
2023/05/09 14:23:32;;;;;;;13.02;2.78;;;;;;;;;;4986333;28;20053;-63
2023/05/09 14:26:00;;;;;;;10.45;2.60;;;;;;;;;;4988491;28;20048;-65
2023/05/09 14:28:26;;;;;;;12.35;2.80;;;;;;;;;;4954045;28;20070;-62
2023/05/09 14:30:52;;;;;;;11.25;2.70;;;;;;;;;;4990778;28;20621;-63
2023/05/09 14:33:18;;;;;;;12.77;3.05;;;;;;;;;;4989830;28;20468;-62
2023/05/09 14:35:44;;;;;;;11.98;3.25;;;;;;;;;;4990485;28;20096;-63
2023/05/09 14:38:11;;;;;;;12.68;3.35;;;;;;;;;;4954049;28;20390;-66
2023/05/09 14:40:37;;;;;;;12.05;3.45;;;;;;;;;;4989579;28;20528;-64
2023/05/09 14:43:03;;;;;;;10.80;2.78;;;;;;;;;;4989167;28;20058;-63
2023/05/09 14:45:30;;;;;;;7.47;2.78;;;;;;;;;;4988665;28;20516;-63
2023/05/09 14:47:56;;;;;;;11.68;3.28;;;;;;;;;;4989012;28;20116;-71
2023/05/09 14:50:22;;;;;;;8.98;3.03;;;;;;;;;;4990003;28;20053;-66
2023/05/09 14:52:49;;;;;;;10.20;3.00;;;;;;;;;;4989723;28;20100;-66
2023/05/09 14:55:17;;;;;;;11.60;3.15;;;;;;;;;;4988357;28;20135;-65
2023/05/09 14:57:44;;;;;;;8.23;2.90;;;;;;;;;;4989117;28;20068;-66
2023/05/09 15:00:10;;;;;;;7.07;2.97;;;;;;;;;;4993001;28;20056;-67
2023/05/09 15:02:38;;;;;;;8.13;2.75;;;;;;;;;;4981330;28;21002;-64
2023/05/09 15:05:05;;;;;;;10.10;2.67;;;;;;;;;;4980104;28;20055;-67
2023/05/09 15:07:31;;;;;;;8.27;3.03;;;;;;;;;;4985713;28;20481;-64
2023/05/09 15:09:57;;;;;;;11.40;2.92;;;;;;;;;;4987440;28;20109;-62
2023/05/09 15:12:23;;;;;;;10.60;3.30;;;;;;;;;;4979749;28;20595;-63
2023/05/09 15:14:52;;;;;;;7.93;2.70;;;;;;;;;;4982897;28;20050;-64
2023/05/09 15:17:59;;;;;;;9.32;3.30;;;;;;;;;;4988056;28;20061;-63
2023/05/09 15:21:38;;;;;;;12.98;3.40;;;;;;;;;;4988643;28;20205;-64
2023/05/09 15:25:19;;;;;;;12.98;3.00;;;;;;;;;;4987268;28;20267;-65
2023/05/09 15:28:59;;;;;;;9.60;3.65;;;;;;;;;;4990220;28;20076;-65
2023/05/09 15:32:39;;;;;;;13.63;3.20;;;;;;;;;;4986307;28;20670;-66
2023/05/09 15:36:19;;;;;;;11.35;3.33;;;;;;;;;;4988394;28;20516;-65
2023/05/09 15:40:00;;;;;;;11.90;3.30;;;;;;;;;;4991251;28;20462;-66
2023/05/09 15:43:40;;;;;;;13.95;3.50;;;;;;;;;;4992290;28;20046;-63
2023/05/09 15:47:21;;;;;;;13.60;4.10;;;;;;;;;;4996490;28;20049;-64
2023/05/09 15:51:02;;;;;;;14.70;4.18;;;;;;;;;;4989069;28;20332;-64
2023/05/09 15:54:43;;;;;;;16.40;4.18;;;;;;;;;;4991812;28;20065;-64
2023/05/09 15:58:21;;;;;;;18.27;4.50;;;;;;;;;;4991615;28;20057;-63
2023/05/09 16:01:30;;;;;;;13.23;4.40;;;;;;;;;;4991970;28;20133;-62
2023/05/09 16:04:37;;;;;;;13.18;4.90;;;;;;;;;;4976081;28;20504;-65
2023/05/09 16:08:17;;;;;;;14.77;4.30;;;;;;;;;;4992916;28;20062;-60
2023/05/09 16:11:58;;;;;;;15.18;4.80;;;;;;;;;;4995077;28;20053;-61
2023/05/09 16:15:38;;;;;;;12.75;4.70;;;;;;;;;;4991204;28;20532;-62
2023/05/09 16:19:19;;;;;;;21.30;5.60;;;;;;;;;;4995315;28;20061;-61
2023/05/09 16:23:00;;;;;;;18.08;5.47;;;;;;;;;;4992877;28;20564;-61
2023/05/09 16:26:41;;;;;;;13.95;5.70;;;;;;;;;;4988841;28;20745;-61
2023/05/09 16:30:21;;;;;;;15.40;5.18;;;;;;;;;;4991683;28;20513;-68
2023/05/09 16:34:01;;;;;;;13.50;5.32;;;;;;;;;;4996177;28;20044;-60
2023/05/09 16:37:42;;;;;;;13.23;5.10;;;;;;;;;;4993801;28;20338;-61
2023/05/09 16:41:22;;;;;;;13.27;5.75;;;;;;;;;;4991099;28;20042;-63
2023/05/09 16:45:05;;;;;;;13.30;5.25;;;;;;;;;;4991307;28;20126;-62
2023/05/09 16:48:46;;;;;;;10.27;4.80;;;;;;;;;;4993207;28;20064;-66
2023/05/09 16:52:26;;;;;;;15.82;5.35;;;;;;;;;;4989658;28;20045;-61
2023/05/09 16:56:07;;;;;;;18.63;5.07;;;;;;;;;;4989154;28;20115;-65
2023/05/09 16:59:47;;;;;;;11.88;5.03;;;;;;;;;;4991626;28;20401;-61
2023/05/09 17:03:28;;;;;;;14.13;4.95;;;;;;;;;;4988312;28;20062;-63
2023/05/09 17:07:08;;;;;;;17.98;4.63;;;;;;;;;;4987942;28;20050;-63
2023/05/09 17:10:48;;;;;;;13.73;4.15;;;;;;;;;;4987105;28;20541;-64
2023/05/09 17:14:29;;;;;;;14.50;4.28;;;;;;;;;;4987831;28;20053;-60
2023/05/09 17:18:09;;;;;;;13.63;4.03;;;;;;;;;;4991993;28;20511;-62
2023/05/09 17:21:49;;;;;;;15.48;4.53;;;;;;;;;;5003960;28;20058;-61
2023/05/09 17:25:30;;;;;;;11.48;4.85;;;;;;;;;;5001060;28;20064;-61
2023/05/09 17:29:10;;;;;;;12.75;4.78;;;;;;;;;;4997740;28;20489;-62
2023/05/09 17:32:50;;;;;;;14.50;4.10;;;;;;;;;;5001417;28;20044;-61
2023/05/09 17:36:32;;;;;;;14.43;3.83;;;;;;;;;;4998482;28;20383;-62
2023/05/09 17:40:11;;;;;;;9.63;4.05;;;;;;;;;;5006183;28;20050;-63
2023/05/09 17:43:55;;;;;;;11.48;3.55;;;;;;;;;;5007023;28;20050;-62
2023/05/09 17:47:32;;;;;;;11.02;4.13;;;;;;;;;;4997419;28;20049;-62
2023/05/09 17:51:12;;;;;;;14.60;4.25;;;;;;;;;;4994821;28;20454;-61
2023/05/09 17:54:52;;;;;;;11.43;3.22;;;;;;;;;;5003502;28;20425;-62
2023/05/09 17:58:32;;;;;;;11.15;3.30;;;;;;;;;;4999309;28;20577;-63
2023/05/09 18:02:13;;;;;;;17.45;3.92;;;;;;;;;;4993940;28;20085;-65
2023/05/09 18:05:53;;;;;;;16.13;3.72;;;;;;;;;;5003373;28;20782;-67
2023/05/09 18:09:33;;;;;;;11.80;3.65;;;;;;;;;;5000080;28;20054;-65
2023/05/09 18:13:14;;;;;;;14.02;3.53;;;;;;;;;;5005934;28;20103;-66
2023/05/09 18:16:54;;;;;;;13.18;3.65;;;;;;;;;;5013116;28;20037;-65
2023/05/09 18:20:35;;;;;;;13.70;3.80;;;;;;;;;;5001359;28;20060;-64
2023/05/09 18:24:19;;;;;;;13.13;3.58;;;;;;;;;;5001589;28;20060;-64
2023/05/09 18:27:57;;;;;;;12.70;3.60;;;;;;;;;;4995256;28;20057;-67
2023/05/09 18:31:38;;;;;;;9.48;3.47;;;;;;;;;;5005902;28;20046;-63
2023/05/09 18:35:17;;;;;;;15.30;3.72;;;;;;;;;;4999570;28;20049;-65
2023/05/09 18:38:58;;;;;;;11.90;3.45;;;;;;;;;;4999157;28;20099;-64
2023/05/09 18:42:38;;;;;;;14.52;3.80;;;;;;;;;;5003998;28;20042;-64
2023/05/09 18:46:21;;;;;;;11.57;3.10;;;;;;;;;;4986592;28;20556;-67
2023/05/09 18:50:01;;;;;;;13.50;3.00;;;;;;;;;;4995205;28;20076;-68
2023/05/09 18:53:42;;;;;;;13.70;3.60;;;;;;;;;;4999251;28;20447;-67